Time;durP1;ratioP1;P1;durP2;ratioP2;P2;SDS_P1;SDS_P2;PMS_P1;PMS_P2;Temp;Humidity;BMP_temperature;BMP_pressure;BME280_temperature;BME280_humidity;BME280_pressure;Samples;Min_cycle;Max_cycle;Signal;HPM_P1;HPM_P2
2022/08/23 07:49:03;;;;;;;1999.90;999.90;;;;;;;34.40;34.33;95443.25;2459154;23;20557;31
2022/08/23 07:51:30;;;;;;;1999.90;999.90;;;;;;;35.02;33.96;95450.19;4936293;29;20221;-60
2022/08/23 07:53:56;;;;;;;1999.90;999.90;;;;;;;34.32;35.49;95446.03;4937653;29;20212;-60
2022/08/23 07:56:22;;;;;;;1999.90;999.90;;;;;;;34.67;35.30;95447.38;4922707;29;20209;-60
2022/08/23 07:58:48;;;;;;;1999.90;999.90;;;;;;;34.73;35.40;95450.81;4937981;29;20204;-60
2022/08/23 08:01:20;;;;;;;1999.90;999.90;;;;;;;34.25;35.35;95451.66;4937443;29;20210;-60
2022/08/23 08:03:48;;;;;;;1999.90;999.90;;;;;;;33.96;36.08;95452.97;4937648;29;20232;-60
2022/08/23 08:06:20;;;;;;;1999.90;999.90;;;;;;;34.03;35.75;95457.94;4937982;29;20212;-61
2022/08/23 08:08:47;;;;;;;1999.90;999.90;;;;;;;34.70;35.83;95457.63;4937661;29;20229;-60
2022/08/23 08:11:15;;;;;;;1999.90;999.90;;;;;;;35.20;33.79;95457.63;4937730;29;20202;-61
2022/08/23 08:13:42;;;;;;;1999.90;999.90;;;;;;;35.43;32.42;95463.38;4937290;29;20201;-60
2022/08/23 08:16:10;;;;;;;1999.90;999.90;;;;;;;34.83;32.29;95471.69;4937845;29;20202;-61
2022/08/23 08:18:36;;;;;;;1999.90;999.90;;;;;;;33.94;34.70;95472.66;4938190;29;20201;-61
2022/08/23 08:21:04;;;;;;;1999.90;999.90;;;;;;;34.62;33.14;95468.19;4937983;29;20198;-61
2022/08/23 08:23:30;;;;;;;1999.90;999.90;;;;;;;34.55;33.66;95475.31;4937611;29;20202;-60
2022/08/23 08:26:07;;;;;;;1999.90;999.90;;;;;;;34.41;32.79;95481.69;4937789;29;20228;-61
2022/08/23 08:28:34;;;;;;;1999.90;999.90;;;;;;;32.85;37.26;95477.56;4937141;29;20208;-62
2022/08/23 08:31:01;;;;;;;1999.90;999.90;;;;;;;34.52;34.42;95470.03;4937428;29;20206;-59
2022/08/23 08:33:27;;;;;;;1999.90;999.90;;;;;;;34.62;33.47;95476.69;4937221;29;20206;-59
2022/08/23 08:35:53;;;;;;;1999.90;999.90;;;;;;;34.49;33.93;95476.81;4937395;29;20294;-61
2022/08/23 08:38:18;;;;;;;1999.90;999.90;;;;;;;34.71;34.39;95473.31;4937236;29;20226;-61
2022/08/23 08:40:44;;;;;;;1999.90;999.90;;;;;;;35.48;32.51;95473.78;4937261;29;20229;-62
2022/08/23 08:43:27;;;;;;;1999.90;999.90;;;;;;;36.14;30.30;95471.56;4937088;29;20206;-65
2022/08/23 08:46:15;;;;;;;1999.90;999.90;;;;;;;35.29;31.23;95479.03;4936363;29;20288;-63
2022/08/23 08:48:45;;;;;;;1999.90;999.90;;;;;;;35.66;30.50;95484.81;4936752;29;20222;-63
2022/08/23 08:51:34;;;;;;;1999.90;999.90;;;;;;;35.86;29.70;95478.22;4920089;29;20202;-60
2022/08/23 08:54:05;;;;;;;1999.90;999.90;;;;;;;35.67;30.59;95485.56;4936552;29;20217;-62
2022/08/23 08:56:33;;;;;;;1999.90;999.90;;;;;;;36.45;29.34;95478.75;4936457;29;20198;-67
2022/08/23 08:59:18;;;;;;;1999.90;999.90;;;;;;;36.83;28.63;95476.56;4936210;29;20201;-63
2022/08/23 09:01:44;;;;;;;1999.90;999.90;;;;;;;36.46;29.81;95474.56;4920829;29;20213;-67
2022/08/23 09:04:10;;;;;;;1999.90;999.90;;;;;;;36.18;30.21;95474.78;4936421;29;20233;-64
2022/08/23 09:06:54;;;;;;;1999.90;999.90;;;;;;;35.74;30.70;95473.44;4920083;29;20197;-63
2022/08/23 09:09:58;;;;;;;1999.90;999.90;;;;;;;35.45;31.48;95474.94;4935992;29;20209;-62
2022/08/23 09:12:26;;;;;;;1999.90;999.90;;;;;;;35.42;30.78;95476.81;4863309;29;20200;-64
2022/08/23 09:15:14;;;;;;;1999.90;999.90;;;;;;;36.19;29.80;95474.22;4863092;29;20204;-65
2022/08/23 09:17:50;;;;;;;1999.90;999.90;;;;;;;36.86;28.97;95466.88;4914730;29;20304;-65
2022/08/23 09:20:19;;;;;;;1999.90;999.90;;;;;;;36.45;29.81;95473.06;4920298;29;20216;-64
2022/08/23 09:22:50;;;;;;;1999.90;999.90;;;;;;;36.42;28.34;95471.34;4920752;29;20204;-61
2022/08/23 09:25:17;;;;;;;1999.90;999.90;;;;;;;35.63;29.59;95468.91;4919402;29;20213;-62
2022/08/23 09:27:43;;;;;;;1999.90;999.90;;;;;;;36.40;28.56;95476.84;4919978;29;20202;-62
2022/08/23 09:30:12;;;;;;;1999.90;999.90;;;;;;;36.29;28.56;95465.88;4935479;29;20213;-63
2022/08/23 09:32:40;;;;;;;1999.90;999.90;;;;;;;35.54;29.33;95469.44;4936142;29;20233;-62
2022/08/23 09:35:15;;;;;;;1999.90;999.90;;;;;;;34.97;30.37;95465.31;4920199;29;20194;-62
2022/08/23 09:38:05;;;;;;;1999.90;999.90;;;;;;;34.69;30.24;95458.91;4936139;29;20277;-63
2022/08/23 09:40:45;;;;;;;1999.90;999.90;;;;;;;35.10;30.19;95465.16;4919603;29;20286;-62
2022/08/23 09:43:24;;;;;;;1999.90;999.90;;;;;;;33.39;32.09;95469.88;4919699;29;20225;-62
2022/08/23 09:45:50;;;;;;;1999.90;999.90;;;;;;;34.04;31.11;95459.50;4935850;29;20233;-62
2022/08/23 09:48:41;;;;;;;1999.90;999.90;;;;;;;33.74;31.34;95469.25;4935500;29;20210;-62
2022/08/23 09:51:31;;;;;;;1999.90;999.90;;;;;;;34.11;31.16;95458.78;4936068;29;20186;-62
2022/08/23 09:54:03;;;;;;;1999.90;999.90;;;;;;;34.04;32.05;95465.16;4927444;29;20217;-62
2022/08/23 09:56:32;;;;;;;1999.90;999.90;;;;;;;35.11;31.72;95463.09;4936219;29;20202;-63
2022/08/23 09:58:58;;;;;;;1999.90;999.90;;;;;;;35.82;29.67;95457.16;4935363;29;20221;-62
2022/08/23 10:01:25;;;;;;;1999.90;999.90;;;;;;;34.85;30.38;95454.88;4935526;29;20313;-62
2022/08/23 10:04:12;;;;;;;1999.90;999.90;;;;;;;35.48;29.80;95460.34;4935512;29;20198;-63
2022/08/23 10:06:40;;;;;;;1999.90;999.90;;;;;;;36.02;29.82;95459.06;4935230;29;20206;-62
2022/08/23 10:09:07;;;;;;;1999.90;999.90;;;;;;;35.80;29.09;95459.81;4919957;29;20189;-62
2022/08/23 10:11:43;;;;;;;1999.90;999.90;;;;;;;35.95;28.70;95459.81;4936018;29;20205;-62
2022/08/23 10:14:12;;;;;;;1999.90;999.90;;;;;;;35.08;28.38;95464.22;4920464;29;20277;-62
2022/08/23 10:16:56;;;;;;;1999.90;999.90;;;;;;;35.77;27.76;95456.03;4920046;29;20249;-62
2022/08/23 10:19:37;;;;;;;1999.90;999.90;;;;;;;34.57;28.47;95457.72;4936114;29;20198;-62
2022/08/23 10:22:19;;;;;;;1999.90;999.90;;;;;;;34.40;29.23;95461.06;4920191;29;20264;-62
2022/08/23 10:24:51;;;;;;;1999.90;999.90;;;;;;;34.06;29.75;95468.19;4920438;29;20213;-62
2022/08/23 10:31:03;;;;;;;1999.90;999.90;;;;;;;34.23;28.05;95451.47;4914593;29;20346;-61
2022/08/23 10:33:53;;;;;;;1999.90;999.90;;;;;;;35.08;27.59;95458.53;4935436;29;20205;-62
2022/08/23 10:37:07;;;;;;;1999.90;999.90;;;;;;;34.48;29.10;95446.91;4936050;29;20276;-63
2022/08/23 10:39:36;;;;;;;1999.90;999.90;;;;;;;33.98;28.98;95458.88;4876759;29;20217;-61
2022/08/23 10:42:14;;;;;;;1999.90;999.90;;;;;;;34.43;28.43;95451.44;4919491;29;20212;-64
2022/08/23 10:44:54;;;;;;;1999.90;999.90;;;;;;;34.43;28.90;95450.66;4920000;29;20205;-62
2022/08/23 10:47:29;;;;;;;1999.90;999.90;;;;;;;35.72;27.00;95441.97;4935764;29;20196;-67
2022/08/23 10:49:59;;;;;;;1999.90;999.90;;;;;;;35.47;27.07;95446.72;4936162;29;20247;-66
2022/08/23 10:52:34;;;;;;;1999.90;999.90;;;;;;;35.29;27.31;95445.69;4935370;29;20197;-64
2022/08/23 10:55:16;;;;;;;1999.90;999.90;;;;;;;35.88;26.44;95441.44;4918930;29;20232;-63
2022/08/23 10:57:45;;;;;;;1999.90;999.90;;;;;;;35.97;25.86;95445.75;4934503;29;20292;-63
2022/08/23 11:00:21;;;;;;;1999.90;999.90;;;;;;;35.90;25.95;95441.59;4934568;29;20213;-65
2022/08/23 11:02:58;;;;;;;1999.90;999.90;;;;;;;35.67;26.45;95437.22;4918982;29;20237;-66
2022/08/23 11:05:30;;;;;;;1999.90;999.90;;;;;;;34.83;27.39;95449.75;4919547;29;20265;-65
2022/08/23 11:07:57;;;;;;;1999.90;999.90;;;;;;;35.80;26.94;95442.75;4919159;29;20201;-65
2022/08/23 11:10:38;;;;;;;1999.90;999.90;;;;;;;33.70;29.72;95449.00;4934622;29;20212;-65
2022/08/23 11:13:20;;;;;;;1999.90;999.90;;;;;;;33.96;30.74;95447.31;4933996;29;20232;-63
2022/08/23 11:16:05;;;;;;;1999.90;999.90;;;;;;;33.17;29.78;95444.13;4935041;29;20202;-63
2022/08/23 11:18:39;;;;;;;1999.90;999.90;;;;;;;33.56;30.42;95450.41;4919803;29;20206;-63
2022/08/23 11:21:17;;;;;;;1999.90;999.90;;;;;;;33.04;30.00;95432.88;4934992;29;20209;-64
2022/08/23 11:23:45;;;;;;;1999.90;999.90;;;;;;;32.03;31.22;95429.84;4935430;29;20245;-62
2022/08/23 11:26:38;;;;;;;1999.90;999.90;;;;;;;31.48;31.10;95433.69;4935297;29;20206;-63
2022/08/23 11:29:07;;;;;;;1999.90;999.90;;;;;;;32.47;31.06;95428.97;4934974;29;20209;-65
2022/08/23 11:31:41;;;;;;;1999.90;999.90;;;;;;;33.08;31.74;95438.94;4935085;29;20238;-64
2022/08/23 11:34:24;;;;;;;1999.90;999.90;;;;;;;33.16;30.05;95434.09;4934648;29;20286;-64
2022/08/23 11:37:17;;;;;;;1999.90;999.90;;;;;;;32.85;29.64;95430.19;4919454;29;20186;-65
2022/08/23 11:39:58;;;;;;;1999.90;999.90;;;;;;;32.37;31.85;95439.22;4934630;29;20265;-63
2022/08/23 11:42:51;;;;;;;1999.90;999.90;;;;;;;30.93;33.51;95434.56;4934840;29;20261;-64
2022/08/23 11:45:21;;;;;;;1999.90;999.90;;;;;;;30.45;36.25;95429.06;4928641;29;20205;-67
2022/08/23 11:48:02;;;;;;;1999.90;999.90;;;;;;;30.40;35.96;95427.06;4935618;29;20213;-66
2022/08/23 11:50:49;;;;;;;1999.90;999.90;;;;;;;29.72;37.39;95424.81;4922315;29;20205;-64
2022/08/23 11:53:55;;;;;;;1999.90;999.90;;;;;;;29.00;39.96;95430.25;4938390;29;20205;-63
2022/08/23 11:56:32;;;;;;;1999.90;999.90;;;;;;;28.57;40.29;95434.91;4937754;29;20198;-69
2022/08/23 11:59:37;;;;;;;1999.90;999.90;;;;;;;28.02;41.01;95431.06;4938278;29;20197;-65
2022/08/23 12:02:30;;;;;;;1999.90;999.90;;;;;;;28.15;43.28;95434.06;4938100;29;20236;-66
2022/08/23 12:04:59;;;;;;;1999.90;999.90;;;;;;;28.16;44.53;95437.66;4937629;29;20198;-65
2022/08/23 12:07:51;;;;;;;1999.90;999.90;;;;;;;27.01;46.44;95430.94;4921838;29;20202;-64
2022/08/23 12:10:40;;;;;;;1999.90;999.90;;;;;;;27.55;48.06;95432.19;4937651;29;20202;-63
2022/08/23 12:13:21;;;;;;;1999.90;999.90;;;;;;;28.00;48.61;95422.38;4894785;29;20241;-65
2022/08/23 12:16:10;;;;;;;1999.90;999.90;;;;;;;27.97;45.33;95429.03;4937444;29;20202;-63
2022/08/23 12:18:58;;;;;;;1999.90;999.90;;;;;;;28.01;46.15;95423.16;4937489;29;20209;-63
2022/08/23 12:21:38;;;;;;;1999.90;999.90;;;;;;;27.54;42.32;95430.66;4921865;29;20308;-63
2022/08/23 12:24:29;;;;;;;1999.90;999.90;;;;;;;26.79;44.58;95430.94;4938005;29;20186;-65
2022/08/23 12:27:12;;;;;;;1999.90;999.90;;;;;;;27.23;43.43;95425.34;4921481;29;20217;-64
2022/08/23 12:30:00;;;;;;;1999.90;999.90;;;;;;;27.12;44.79;95428.13;4937443;29;20205;-63
2022/08/23 12:32:40;;;;;;;1999.90;999.90;;;;;;;26.73;44.74;95430.16;4937278;29;20201;-63
2022/08/23 12:35:30;;;;;;;1999.90;999.90;;;;;;;26.74;44.89;95419.72;4937548;29;20197;-64
2022/08/23 12:38:33;;;;;;;1999.90;999.90;;;;;;;26.14;46.76;95429.47;4938131;29;20214;-64
2022/08/23 12:41:16;;;;;;;1999.90;999.90;;;;;;;26.47;43.51;95434.44;4892415;29;20233;-63
2022/08/23 12:44:04;;;;;;;1999.90;999.90;;;;;;;26.58;45.36;95426.78;4921394;29;20253;-64
2022/08/23 12:46:44;;;;;;;1999.90;999.90;;;;;;;26.94;46.15;95423.03;4921173;29;20323;-64
2022/08/23 12:49:25;;;;;;;1999.90;999.90;;;;;;;27.11;45.17;95423.81;4921533;29;20212;-65
2022/08/23 12:51:55;;;;;;;1999.90;999.90;;;;;;;27.42;45.06;95423.53;4921478;29;20210;-64
2022/08/23 12:54:31;;;;;;;1999.90;999.90;;;;;;;27.59;44.89;95415.84;4921358;29;20213;-64
2022/08/23 12:56:58;;;;;;;1999.90;999.90;;;;;;;27.84;44.44;95414.03;4936834;29;20253;-65
2022/08/23 12:59:32;;;;;;;1999.90;999.90;;;;;;;27.91;42.17;95419.09;4920312;29;20269;-64
2022/08/23 13:02:01;;;;;;;1999.90;999.90;;;;;;;27.85;42.43;95415.53;4936940;29;20218;-65
2022/08/23 13:04:28;;;;;;;1999.90;999.90;;;;;;;27.77;42.97;95404.06;4921245;29;20214;-64
2022/08/23 13:06:57;;;;;;;1999.90;999.90;;;;;;;27.95;43.20;95408.38;4936596;29;20269;-64
2022/08/23 13:09:30;;;;;;;1999.90;999.90;;;;;;;27.85;41.84;95405.09;4937193;29;20206;-64
2022/08/23 13:11:57;;;;;;;1999.90;999.90;;;;;;;27.75;42.15;95411.47;4936490;29;20212;-64
2022/08/23 13:14:32;;;;;;;1999.90;999.90;;;;;;;27.63;43.48;95405.13;4921218;29;20249;-64
2022/08/23 13:17:26;;;;;;;1999.90;999.90;;;;;;;27.67;42.36;95400.00;4936744;29;20250;-65
2022/08/23 13:20:09;;;;;;;1999.90;999.90;;;;;;;27.84;42.55;95397.94;4936756;29;20210;-65
2022/08/23 13:22:37;;;;;;;1999.90;999.90;;;;;;;27.71;42.30;95402.53;4921380;29;20189;-64
2022/08/23 13:25:02;;;;;;;1999.90;999.90;;;;;;;27.73;41.67;95392.34;4921167;29;20213;-65
2022/08/23 13:27:33;;;;;;;1999.90;999.90;;;;;;;27.69;43.04;95391.06;4936695;29;20217;-64
2022/08/23 13:30:07;;;;;;;1999.90;999.90;;;;;;;27.49;40.80;95399.78;4936528;29;20232;-64
2022/08/23 13:32:40;;;;;;;1999.90;999.90;;;;;;;27.53;42.71;95395.44;4936782;29;20200;-64
2022/08/23 13:35:35;;;;;;;1999.90;999.90;;;;;;;27.69;40.75;95391.84;4936418;29;20205;-65
2022/08/23 13:38:06;;;;;;;1999.90;999.90;;;;;;;27.80;39.89;95391.81;4936552;29;20218;-64
2022/08/23 13:40:53;;;;;;;1999.90;999.90;;;;;;;27.84;40.30;95395.13;4936063;29;20241;-64
2022/08/23 13:43:31;;;;;;;1999.90;999.90;;;;;;;27.81;43.14;95387.72;4920882;29;20292;-64
2022/08/23 13:46:08;;;;;;;1999.90;999.90;;;;;;;27.88;43.63;95386.44;4936735;29;20205;-64
2022/08/23 13:48:34;;;;;;;1999.90;999.90;;;;;;;27.74;44.35;95387.47;4920348;29;20240;-63
2022/08/23 13:51:23;;;;;;;1999.90;999.90;;;;;;;27.31;42.98;95395.50;4920413;29;20205;-63
2022/08/23 13:53:49;;;;;;;1999.90;999.90;;;;;;;27.48;41.21;95387.81;4936153;29;20206;-63
2022/08/23 13:56:15;;;;;;;1999.90;999.90;;;;;;;27.49;42.01;95383.72;4920736;29;20253;-67
2022/08/23 13:58:41;;;;;;;1999.90;999.90;;;;;;;27.51;44.03;95381.19;4920707;29;20190;-64
2022/08/23 14:01:15;;;;;;;1999.90;999.90;;;;;;;27.38;42.65;95375.34;4920641;29;20221;-64
2022/08/23 14:03:41;;;;;;;1999.90;999.90;;;;;;;27.42;41.67;95377.88;4936457;29;20205;-64
2022/08/23 14:06:06;;;;;;;1999.90;999.90;;;;;;;27.58;44.16;95369.41;4935951;29;20304;-64
2022/08/23 14:08:31;;;;;;;1999.90;999.90;;;;;;;27.66;42.80;95376.03;4935954;29;20201;-64
2022/08/23 14:10:57;;;;;;;1999.90;999.90;;;;;;;27.62;43.80;95375.53;4919837;29;20209;-63
2022/08/23 14:13:27;;;;;;;1999.90;999.90;;;;;;;27.63;45.49;95374.25;4919834;29;20202;-65
2022/08/23 14:15:53;;;;;;;1999.90;999.90;;;;;;;27.61;43.80;95371.19;4920125;29;20202;-63
2022/08/23 14:18:18;;;;;;;1999.90;999.90;;;;;;;27.66;43.88;95373.22;4920138;29;20257;-63
2022/08/23 14:20:44;;;;;;;1999.90;999.90;;;;;;;27.68;43.87;95373.44;4920899;29;20263;-62
2022/08/23 14:23:09;;;;;;;1999.90;999.90;;;;;;;27.67;42.07;95366.31;4919842;29;20205;-66
2022/08/23 14:25:34;;;;;;;1999.90;999.90;;;;;;;27.72;42.28;95368.31;4935623;29;20291;-64
2022/08/23 14:28:00;;;;;;;1999.90;999.90;;;;;;;27.73;42.66;95374.72;4920225;29;20244;-64
2022/08/23 14:30:32;;;;;;;1999.90;999.90;;;;;;;27.57;41.49;95362.25;4920252;29;20245;-65
2022/08/23 14:32:58;;;;;;;1999.90;999.90;;;;;;;27.47;42.98;95366.66;4920250;29;20216;-63
2022/08/23 14:35:24;;;;;;;1999.90;999.90;;;;;;;27.36;44.75;95358.25;4919772;29;20210;-63
2022/08/23 14:37:50;;;;;;;1999.90;999.90;;;;;;;27.32;43.89;95363.34;4919392;29;20206;-65
2022/08/23 14:40:16;;;;;;;1999.90;999.90;;;;;;;27.34;43.60;95369.22;4919696;29;20214;-63
2022/08/23 14:42:42;;;;;;;1999.90;999.90;;;;;;;27.13;42.11;95367.94;4919914;29;20212;-63
2022/08/23 14:45:08;;;;;;;1999.90;999.90;;;;;;;27.03;43.74;95377.91;4919572;29;20209;-63
2022/08/23 14:47:34;;;;;;;1999.90;999.90;;;;;;;27.12;44.33;95372.03;4919416;29;20210;-62
2022/08/23 14:50:00;;;;;;;1999.90;999.90;;;;;;;27.12;42.82;95371.25;4920110;29;20237;-63
2022/08/23 14:52:26;;;;;;;1999.90;999.90;;;;;;;26.99;44.66;95374.59;4919935;29;20205;-63
2022/08/23 14:54:51;;;;;;;1999.90;999.90;;;;;;;27.15;43.17;95379.44;4919488;29;20690;-63
2022/08/23 14:57:17;;;;;;;1999.90;999.90;;;;;;;27.19;41.66;95370.75;4919968;29;20209;-64
2022/08/23 14:59:42;;;;;;;1999.90;999.90;;;;;;;27.12;42.10;95369.22;4919723;29;20209;-63
2022/08/23 15:02:10;;;;;;;1999.90;999.90;;;;;;;26.86;40.10;95368.75;4935503;29;20213;-63
2022/08/23 15:04:36;;;;;;;1999.90;999.90;;;;;;;26.72;40.77;95366.19;4919484;29;20198;-63
2022/08/23 15:07:03;;;;;;;1999.90;999.90;;;;;;;26.89;41.15;95373.34;4919655;29;20206;-63
2022/08/23 15:09:29;;;;;;;1999.90;999.90;;;;;;;27.02;41.17;95370.75;4919736;29;20237;-62
2022/08/23 15:11:54;;;;;;;1999.90;999.90;;;;;;;27.10;41.18;95374.56;4919251;29;20300;-62
2022/08/23 15:14:20;;;;;;;1999.90;999.90;;;;;;;26.94;41.01;95372.56;4919517;29;20209;-62
2022/08/23 15:16:45;;;;;;;1999.90;999.90;;;;;;;26.83;40.15;95369.75;4935080;29;20213;-62
2022/08/23 15:19:12;;;;;;;1999.90;999.90;;;;;;;26.90;42.05;95369.25;4935240;29;20210;-63
2022/08/23 15:21:38;;;;;;;1999.90;999.90;;;;;;;26.99;41.46;95371.78;4919257;29;20221;-62
2022/08/23 15:24:04;;;;;;;1999.90;999.90;;;;;;;27.10;41.13;95368.97;4922335;29;20264;-63
2022/08/23 15:26:30;;;;;;;1999.90;999.90;;;;;;;27.06;40.25;95367.72;4939112;29;20195;-62
2022/08/23 15:28:56;;;;;;;1999.90;999.90;;;;;;;27.01;39.88;95369.25;4922512;29;20284;-62
2022/08/23 15:31:21;;;;;;;1999.90;999.90;;;;;;;27.07;39.57;95370.00;4938492;29;20210;-62
2022/08/23 15:33:47;;;;;;;1999.90;999.90;;;;;;;26.86;38.88;95368.75;4922580;29;20221;-62
2022/08/23 15:36:14;;;;;;;1999.90;999.90;;;;;;;26.69;39.66;95364.41;4938170;29;20237;-62
2022/08/23 15:38:42;;;;;;;1999.90;999.90;;;;;;;26.60;39.46;95368.22;4922969;29;20209;-62
2022/08/23 15:41:08;;;;;;;1999.90;999.90;;;;;;;26.67;39.57;95373.34;4938257;29;20248;-64
2022/08/23 15:43:34;;;;;;;1999.90;999.90;;;;;;;26.39;37.25;95371.72;4922296;29;20226;-63
2022/08/23 15:46:06;;;;;;;1999.90;999.90;;;;;;;26.32;36.06;95373.00;4922501;29;20205;-62
2022/08/23 15:48:36;;;;;;;1999.90;999.90;;;;;;;26.27;36.22;95376.56;4921976;29;20292;-64
2022/08/23 15:51:03;;;;;;;1999.90;999.90;;;;;;;26.21;38.28;95381.38;4938267;29;20209;-64
2022/08/23 15:53:29;;;;;;;1999.90;999.90;;;;;;;26.27;39.67;95375.78;4922320;29;20178;-65
2022/08/23 15:55:54;;;;;;;1999.90;999.90;;;;;;;26.39;41.23;95372.50;4922088;29;20301;-64
2022/08/23 15:58:23;;;;;;;1999.90;999.90;;;;;;;26.50;40.15;95374.53;4922107;29;20205;-64
2022/08/23 16:00:49;;;;;;;1999.90;999.90;;;;;;;26.49;40.71;95371.00;4937981;29;20229;-63
2022/08/23 16:03:16;;;;;;;1999.90;999.90;;;;;;;26.51;39.06;95368.44;4922143;29;20210;-64
2022/08/23 16:05:44;;;;;;;1999.90;999.90;;;;;;;26.55;39.59;95368.19;4937829;29;20212;-63
2022/08/23 16:08:37;;;;;;;1999.90;999.90;;;;;;;26.47;40.43;95379.13;4921779;29;20225;-63
2022/08/23 16:11:10;;;;;;;1999.90;999.90;;;;;;;26.40;40.98;95378.88;4935415;29;20260;-63
2022/08/23 16:13:39;;;;;;;1999.90;999.90;;;;;;;26.10;41.56;95370.16;4922302;29;20208;-64
2022/08/23 16:16:08;;;;;;;1999.90;999.90;;;;;;;25.93;41.29;95368.53;4922380;29;20256;-64
2022/08/23 16:18:33;;;;;;;1999.90;999.90;;;;;;;25.89;40.29;95370.81;4922323;29;20241;-63
2022/08/23 16:20:58;;;;;;;1999.90;999.90;;;;;;;25.99;42.30;95372.91;4921428;29;20248;-63
2022/08/23 16:23:25;;;;;;;1999.90;999.90;;;;;;;25.90;41.65;95366.75;4921878;29;20210;-64
2022/08/23 16:25:50;;;;;;;1999.90;999.90;;;;;;;26.02;42.30;95376.72;4921794;29;20212;-63
2022/08/23 16:28:16;;;;;;;1999.90;999.90;;;;;;;26.10;42.70;95372.94;4921573;29;20206;-64
2022/08/23 16:30:41;;;;;;;1999.90;999.90;;;;;;;25.82;43.07;95380.44;4921825;29;20293;-63
2022/08/23 16:33:07;;;;;;;1999.90;999.90;;;;;;;25.87;44.58;95376.16;4921384;29;20252;-63
2022/08/23 16:35:32;;;;;;;1999.90;999.90;;;;;;;25.98;43.64;95371.41;4937851;29;20198;-63
2022/08/23 16:37:58;;;;;;;1999.90;999.90;;;;;;;25.98;43.71;95382.59;4921553;29;20297;-63
2022/08/23 16:40:23;;;;;;;1999.90;999.90;;;;;;;26.03;43.97;95379.03;4921783;29;20254;-63
2022/08/23 16:42:49;;;;;;;1999.90;999.90;;;;;;;25.74;44.06;95376.59;4921340;29;20296;-64
2022/08/23 16:45:15;;;;;;;1999.90;999.90;;;;;;;25.72;44.44;95376.34;4921048;29;20186;-64
2022/08/23 16:47:42;;;;;;;1999.90;999.90;;;;;;;25.77;44.23;95384.00;4921500;29;20227;-63
2022/08/23 16:50:09;;;;;;;1999.90;999.90;;;;;;;25.82;43.67;95383.25;4921052;29;20212;-64
2022/08/23 16:52:34;;;;;;;1999.90;999.90;;;;;;;25.76;44.23;95393.66;4921427;29;20202;-63
2022/08/23 16:55:05;;;;;;;1999.90;999.90;;;;;;;25.62;44.30;95388.25;4921156;29;20281;-63
2022/08/23 16:57:30;;;;;;;1999.90;999.90;;;;;;;25.38;44.72;95397.03;4937125;29;20269;-63
2022/08/23 16:59:56;;;;;;;1999.90;999.90;;;;;;;25.45;44.70;95395.81;4920962;29;20237;-63
2022/08/23 17:02:33;;;;;;;1999.90;999.90;;;;;;;25.32;44.45;95393.44;4936916;29;20244;-63
2022/08/23 17:04:59;;;;;;;1999.90;999.90;;;;;;;25.23;45.93;95390.78;4921401;29;20205;-64
2022/08/23 17:07:24;;;;;;;1999.90;999.90;;;;;;;25.20;46.88;95394.59;4921247;29;20198;-64
2022/08/23 17:09:50;;;;;;;1999.90;999.90;;;;;;;25.11;46.87;95395.56;4921293;29;20209;-64
2022/08/23 17:12:17;;;;;;;1999.90;999.90;;;;;;;25.12;47.85;95390.72;4921694;29;20189;-64
2022/08/23 17:14:44;;;;;;;1999.90;999.90;;;;;;;25.15;48.93;95396.09;4921412;29;20240;-63
2022/08/23 17:17:10;;;;;;;1999.90;999.90;;;;;;;25.19;50.02;95393.06;4921571;29;20205;-65
2022/08/23 17:19:36;;;;;;;1999.90;999.90;;;;;;;24.98;50.15;95397.22;4920713;29;20225;-63
2022/08/23 17:22:01;;;;;;;1999.90;999.90;;;;;;;25.00;51.83;95397.50;4921034;29;20256;-63
2022/08/23 17:24:27;;;;;;;1999.90;999.90;;;;;;;24.83;51.89;95396.59;4920574;29;20210;-64
2022/08/23 17:26:52;;;;;;;1999.90;999.90;;;;;;;24.93;52.81;95404.31;4921228;29;20202;-64
2022/08/23 17:29:18;;;;;;;1999.90;999.90;;;;;;;24.90;53.71;95390.56;4921058;29;20198;-64
2022/08/23 17:31:43;;;;;;;1999.90;999.90;;;;;;;24.79;54.04;95396.06;4921153;29;20216;-63
2022/08/23 17:34:08;;;;;;;1999.90;999.90;;;;;;;24.79;55.69;95401.66;4936139;29;20230;-63
2022/08/23 17:36:43;;;;;;;1999.90;999.90;;;;;;;24.71;57.73;95400.56;4920416;29;20202;-63
2022/08/23 17:39:11;;;;;;;1999.90;999.90;;;;;;;24.64;58.44;95395.44;4920749;29;20185;-64
2022/08/23 17:41:37;;;;;;;1999.90;999.90;;;;;;;24.56;57.92;95408.28;4920902;29;20308;-65
2022/08/23 17:44:04;;;;;;;1999.90;999.90;;;;;;;24.52;57.38;95404.94;4920643;29;20212;-64
2022/08/23 17:46:33;;;;;;;1999.90;999.90;;;;;;;24.45;59.12;95402.59;4936050;29;20237;-65
2022/08/23 17:48:58;;;;;;;1999.90;999.90;;;;;;;24.35;60.35;95401.22;4936396;29;20297;-64
2022/08/23 17:51:24;;;;;;;1999.90;999.90;;;;;;;24.26;62.51;95404.94;4920316;29;20296;-63
2022/08/23 17:53:49;;;;;;;1999.90;999.90;;;;;;;24.12;63.74;95416.22;4920746;29;20202;-64
2022/08/23 17:56:14;;;;;;;1999.90;999.90;;;;;;;23.97;64.31;95415.53;4920399;29;20208;-66
2022/08/23 17:58:40;;;;;;;1999.90;999.90;;;;;;;23.87;66.12;95419.69;4920429;29;20213;-65
2022/08/23 18:01:05;;;;;;;1999.90;999.90;;;;;;;23.86;67.10;95423.75;4936456;29;20222;-63
2022/08/23 18:03:31;;;;;;;1999.90;999.90;;;;;;;23.80;68.90;95422.91;4920023;29;20216;-65
2022/08/23 18:05:57;;;;;;;1999.90;999.90;;;;;;;23.68;71.11;95421.22;4920283;29;20217;-62
2022/08/23 18:08:23;;;;;;;1999.90;999.90;;;;;;;23.57;73.17;95426.66;4920514;29;20253;-64
2022/08/23 18:10:48;;;;;;;1999.90;999.90;;;;;;;23.49;74.12;95431.13;4920286;29;20182;-64
2022/08/23 18:13:13;;;;;;;1999.90;999.90;;;;;;;23.41;74.60;95430.00;4920436;29;20201;-64
2022/08/23 18:15:39;;;;;;;1999.90;999.90;;;;;;;23.32;78.20;95432.91;4920159;29;20205;-64
2022/08/23 18:18:05;;;;;;;1999.90;999.90;;;;;;;23.16;82.67;95427.81;4920238;29;20235;-64
2022/08/23 18:20:31;;;;;;;1999.90;999.90;;;;;;;23.05;86.74;95427.66;4936427;29;20217;-62
2022/08/23 18:22:57;;;;;;;1999.90;999.90;;;;;;;22.90;90.66;95422.09;4920311;29;20209;-62
2022/08/23 18:25:24;;;;;;;1999.90;999.90;;;;;;;22.75;92.52;95406.63;4920040;29;20213;-62
2022/08/23 18:28:05;;;;;;;1999.90;999.90;;;;;;;22.64;93.43;95412.03;4919864;29;20206;-62
2022/08/23 18:30:35;;;;;;;1999.90;999.90;;;;;;;22.52;95.97;95407.53;4920369;29;20206;-62
2022/08/23 18:33:01;;;;;;;1999.90;999.90;;;;;;;22.39;98.20;95391.84;4936348;29;20201;-63
2022/08/23 18:35:29;;;;;;;1999.90;999.90;;;;;;;22.25;100.00;95369.56;4935567;29;20284;-62
2022/08/23 18:37:56;;;;;;;1999.90;999.90;;;;;;;22.14;100.00;95347.91;4920136;29;20256;-62
2022/08/23 18:40:21;;;;;;;1999.90;999.90;;;;;;;22.15;92.21;95371.69;4920092;29;20225;-64
2022/08/23 18:42:47;;;;;;;1999.90;999.90;;;;;;;22.13;100.00;95340.81;4919588;29;20210;-62
2022/08/23 18:45:12;;;;;;;1999.90;999.90;;;;;;;22.01;100.00;95305.69;4919508;29;20332;-62
2022/08/23 18:47:39;;;;;;;1999.90;999.90;;;;;;;21.92;100.00;95291.09;4919608;29;20288;-62
2022/08/23 18:50:06;;;;;;;1999.90;999.90;;;;;;;21.81;100.00;95280.53;4919480;29;20217;-63
2022/08/23 18:52:32;;;;;;;1999.90;999.90;;;;;;;21.72;100.00;95279.88;4919737;29;20213;-62
2022/08/23 18:54:58;;;;;;;1999.90;999.90;;;;;;;21.65;100.00;95267.09;4919729;29;20213;-63
2022/08/23 18:57:23;;;;;;;1999.90;999.90;;;;;;;21.60;100.00;95253.09;4920107;29;20201;-62
2022/08/23 18:59:49;;;;;;;1999.90;999.90;;;;;;;21.54;100.00;95241.88;4923089;29;20266;-63
2022/08/23 19:02:14;;;;;;;1999.90;999.90;;;;;;;21.53;100.00;95248.66;4938507;29;20232;-64
2022/08/23 19:04:40;;;;;;;1999.90;999.90;;;;;;;21.44;100.00;95242.41;4922890;29;20225;-63
2022/08/23 19:07:07;;;;;;;1999.90;999.90;;;;;;;21.35;100.00;95221.03;4922903;29;20275;-62